Time;durP1;ratioP1;P1;durP2;ratioP2;P2;SDS_P1;SDS_P2;PMS_P1;PMS_P2;Temp;Humidity;BMP_temperature;BMP_pressure;BME280_temperature;BME280_humidity;BME280_pressure;Samples;Min_cycle;Max_cycle;Signal;HPM_P1;HPM_P2
2023/04/09 00:06:47;;;;;;;2.20;1.00;;;;;;;;;;20839000;28;20048;-63
2023/04/09 00:16:49;;;;;;;2.28;0.85;;;;;;;;;;20838993;28;20107;-62
2023/04/09 00:26:52;;;;;;;3.70;1.17;;;;;;;;;;20838758;28;20473;-62
2023/04/09 00:36:53;;;;;;;4.63;1.00;;;;;;;;;;20836360;28;20144;-63
2023/04/09 00:46:55;;;;;;;6.88;1.08;;;;;;;;;;20837410;28;20057;-62
2023/04/09 00:56:57;;;;;;;6.40;1.40;;;;;;;;;;20834787;28;20049;-63
2023/04/09 01:07:02;;;;;;;4.15;1.25;;;;;;;;;;20834408;28;20136;-63
2023/04/09 01:17:11;;;;;;;6.32;1.45;;;;;;;;;;20834562;28;20513;-63
2023/04/09 01:27:14;;;;;;;7.50;3.13;;;;;;;;;;20833018;28;20054;-63
2023/04/09 01:37:16;;;;;;;2.97;1.20;;;;;;;;;;20833549;28;20471;-62
2023/04/09 01:47:18;;;;;;;5.05;1.30;;;;;;;;;;20832868;28;20053;-63
2023/04/09 01:57:20;;;;;;;2.08;0.80;;;;;;;;;;20832435;28;20415;-63
2023/04/09 02:07:35;;;;;;;1.73;0.93;;;;;;;;;;20831657;28;20045;-62
2023/04/09 02:17:36;;;;;;;5.05;1.30;;;;;;;;;;20830946;28;20459;-62
2023/04/09 02:27:38;;;;;;;2.80;1.25;;;;;;;;;;20830911;28;20104;-62
2023/04/09 02:37:40;;;;;;;5.88;1.90;;;;;;;;;;20829412;28;20061;-62
2023/04/09 02:47:41;;;;;;;2.53;1.40;;;;;;;;;;20830348;28;20415;-62
2023/04/09 02:57:43;;;;;;;3.03;1.13;;;;;;;;;;20829931;28;20095;-62
2023/04/09 03:07:46;;;;;;;4.45;1.23;;;;;;;;;;20829398;28;20053;-62
2023/04/09 03:17:47;;;;;;;7.05;1.85;;;;;;;;;;20829681;28;20129;-63
2023/04/09 03:27:49;;;;;;;4.60;1.75;;;;;;;;;;20843783;28;20045;-63
2023/04/09 03:37:51;;;;;;;4.20;2.10;;;;;;;;;;20842869;28;20399;-63
2023/04/09 03:47:52;;;;;;;3.15;1.40;;;;;;;;;;20840654;28;20054;-62
2023/04/09 03:57:54;;;;;;;3.63;1.58;;;;;;;;;;20841183;28;20407;-63
2023/04/09 04:07:56;;;;;;;7.35;2.15;;;;;;;;;;20840234;28;20072;-62
2023/04/09 04:17:57;;;;;;;5.07;1.90;;;;;;;;;;20839142;28;20112;-62
2023/04/09 04:27:59;;;;;;;5.95;2.00;;;;;;;;;;20837436;28;20057;-62
2023/04/09 04:38:01;;;;;;;9.98;2.28;;;;;;;;;;20837627;28;20079;-62
2023/04/09 04:48:03;;;;;;;5.75;1.67;;;;;;;;;;20837491;28;20045;-62
2023/04/09 04:58:05;;;;;;;8.35;1.58;;;;;;;;;;20836779;28;20076;-62
2023/04/09 05:08:07;;;;;;;4.07;1.73;;;;;;;;;;20835641;28;20474;-62
2023/04/09 05:18:09;;;;;;;3.50;1.60;;;;;;;;;;20834137;28;20049;-62
2023/04/09 05:28:10;;;;;;;5.45;1.60;;;;;;;;;;20834385;28;20403;-63
2023/04/09 05:38:12;;;;;;;3.42;1.35;;;;;;;;;;20833678;28;20479;-63
2023/04/09 05:48:15;;;;;;;3.83;1.38;;;;;;;;;;20832783;28;20399;-62
2023/04/09 05:58:18;;;;;;;3.05;1.27;;;;;;;;;;20831079;28;20056;-63
2023/04/09 06:08:20;;;;;;;4.57;1.20;;;;;;;;;;20830687;28;20100;-64
2023/04/09 06:18:22;;;;;;;6.30;1.73;;;;;;;;;;20830435;28;20076;-62
2023/04/09 06:28:27;;;;;;;5.70;1.20;;;;;;;;;;20831099;28;20462;-62
2023/04/09 06:38:29;;;;;;;7.30;1.45;;;;;;;;;;20829374;28;20466;-62
2023/04/09 06:48:31;;;;;;;3.22;1.55;;;;;;;;;;20830224;28;20388;-62
2023/04/09 06:58:33;;;;;;;11.07;3.90;;;;;;;;;;20840926;28;20053;-63
2023/04/09 07:08:35;;;;;;;4.00;1.60;;;;;;;;;;20843674;28;20050;-62
2023/04/09 07:18:36;;;;;;;15.40;1.90;;;;;;;;;;20844035;28;20049;-62
2023/04/09 07:28:38;;;;;;;7.07;2.35;;;;;;;;;;20842995;28;20103;-63
2023/04/09 07:38:40;;;;;;;6.57;2.47;;;;;;;;;;20840818;28;20139;-63
2023/04/09 07:48:42;;;;;;;7.50;2.95;;;;;;;;;;20841189;28;20570;-63
2023/04/09 07:58:43;;;;;;;10.05;3.28;;;;;;;;;;20838899;28;20054;-63
2023/04/09 08:08:45;;;;;;;7.65;3.30;;;;;;;;;;20837999;28;20053;-63
2023/04/09 08:18:47;;;;;;;5.60;2.90;;;;;;;;;;20838982;28;20053;-63
2023/04/09 08:28:50;;;;;;;5.18;2.72;;;;;;;;;;20838745;28;20052;-62
2023/04/09 08:38:54;;;;;;;8.40;2.47;;;;;;;;;;20835740;28;20056;-63
2023/04/09 08:48:56;;;;;;;4.57;2.05;;;;;;;;;;20835090;28;20056;-63
2023/04/09 08:58:58;;;;;;;6.20;2.72;;;;;;;;;;20834109;28;20049;-64
2023/04/09 09:09:09;;;;;;;4.57;1.83;;;;;;;;;;20834707;28;20049;-62
2023/04/09 09:19:20;;;;;;;3.35;1.48;;;;;;;;;;20833356;28;20414;-63
2023/04/09 09:29:22;;;;;;;3.55;1.80;;;;;;;;;;20832689;28;20052;-63
2023/04/09 09:39:42;;;;;;;3.67;1.80;;;;;;;;;;20831156;28;20060;-63
2023/04/09 09:49:44;;;;;;;6.43;2.00;;;;;;;;;;20832484;28;20053;-63
2023/04/09 10:00:12;;;;;;;4.90;1.70;;;;;;;;;;20832368;28;20072;-62
2023/04/09 10:10:15;;;;;;;4.22;1.80;;;;;;;;;;20828587;28;20058;-63
2023/04/09 10:20:28;;;;;;;5.68;2.30;;;;;;;;;;20829743;28;20081;-64
2023/04/09 10:30:36;;;;;;;5.80;2.80;;;;;;;;;;20837104;28;20050;-64
2023/04/09 10:40:42;;;;;;;4.60;2.17;;;;;;;;;;20845866;28;20049;-63
2023/04/09 10:50:44;;;;;;;4.70;2.08;;;;;;;;;;20846551;28;20050;-65
2023/04/09 11:00:47;;;;;;;4.97;1.63;;;;;;;;;;20845686;28;20049;-64
2023/04/09 11:10:49;;;;;;;4.00;1.83;;;;;;;;;;20844850;28;20516;-67
2023/04/09 11:21:02;;;;;;;4.00;1.83;;;;;;;;;;20843194;28;20084;-66
2023/04/09 11:31:05;;;;;;;7.28;1.60;;;;;;;;;;20843605;28;20096;-66
2023/04/09 11:41:11;;;;;;;8.70;3.42;;;;;;;;;;20840590;28;20056;-66
2023/04/09 11:51:13;;;;;;;4.47;2.20;;;;;;;;;;20841873;28;20456;-63
2023/04/09 12:01:15;;;;;;;2.72;1.17;;;;;;;;;;20840454;28;20547;-63
2023/04/09 12:11:17;;;;;;;5.95;2.50;;;;;;;;;;20840226;28;20049;-63
2023/04/09 12:21:19;;;;;;;8.93;1.83;;;;;;;;;;20838516;28;20053;-63
2023/04/09 12:31:20;;;;;;;4.82;1.52;;;;;;;;;;20837520;28;20045;-63
2023/04/09 12:41:22;;;;;;;6.13;1.55;;;;;;;;;;20836204;28;20081;-63
2023/04/09 12:51:24;;;;;;;6.82;2.28;;;;;;;;;;20835751;28;20049;-63
2023/04/09 13:01:26;;;;;;;4.50;1.67;;;;;;;;;;20836015;28;20494;-63
2023/04/09 13:11:27;;;;;;;6.40;2.15;;;;;;;;;;20833079;28;20046;-63
2023/04/09 13:21:29;;;;;;;7.05;2.00;;;;;;;;;;20833716;28;20081;-63
2023/04/09 13:31:30;;;;;;;15.73;2.65;;;;;;;;;;20833938;28;20041;-63
2023/04/09 13:41:32;;;;;;;7.80;1.83;;;;;;;;;;20833270;28;20041;-64
2023/04/09 13:51:33;;;;;;;15.10;2.88;;;;;;;;;;20832518;28;20041;-64
2023/04/09 14:01:35;;;;;;;17.65;3.53;;;;;;;;;;20831423;28;20053;-64
2023/04/09 14:11:36;;;;;;;21.63;3.75;;;;;;;;;;20831662;28;20058;-64
2023/04/09 14:21:38;;;;;;;38.10;5.85;;;;;;;;;;20829351;28;20503;-63
2023/04/09 14:31:41;;;;;;;26.77;5.25;;;;;;;;;;20830852;28;20061;-64
2023/04/09 14:41:43;;;;;;;20.10;4.22;;;;;;;;;;20829419;28;20054;-62
2023/04/09 14:51:44;;;;;;;28.23;5.65;;;;;;;;;;20829926;28;20491;-64
2023/04/09 15:01:46;;;;;;;14.07;3.33;;;;;;;;;;20828343;28;20054;-64
2023/04/09 15:11:47;;;;;;;31.75;5.32;;;;;;;;;;20829258;28;20099;-63
2023/04/09 15:21:49;;;;;;;22.42;4.72;;;;;;;;;;20841495;28;20400;-63
2023/04/09 15:31:53;;;;;;;29.83;5.68;;;;;;;;;;20842011;28;20049;-65
2023/04/09 15:41:56;;;;;;;34.70;5.82;;;;;;;;;;20841317;28;20057;-64
2023/04/09 15:51:58;;;;;;;30.98;4.72;;;;;;;;;;20841827;28;20053;-64
2023/04/09 16:01:59;;;;;;;18.65;3.75;;;;;;;;;;20839711;28;20046;-63
2023/04/09 16:12:01;;;;;;;21.15;3.88;;;;;;;;;;20840332;28;20053;-62
2023/04/09 16:22:02;;;;;;;21.70;4.30;;;;;;;;;;20838013;28;20061;-63
2023/04/09 16:32:04;;;;;;;20.98;3.47;;;;;;;;;;20837329;28;20136;-64
2023/04/09 16:42:06;;;;;;;33.78;4.70;;;;;;;;;;20837381;28;20075;-65
2023/04/09 16:52:08;;;;;;;24.92;4.72;;;;;;;;;;20835093;28;20053;-66
2023/04/09 17:02:09;;;;;;;19.20;3.58;;;;;;;;;;20835980;28;20055;-66
2023/04/09 17:12:11;;;;;;;17.85;3.88;;;;;;;;;;20834489;28;20075;-66
2023/04/09 17:22:13;;;;;;;23.92;4.53;;;;;;;;;;20832101;28;20461;-67
2023/04/09 17:32:15;;;;;;;23.67;4.75;;;;;;;;;;20833576;28;20056;-66
2023/04/09 17:42:16;;;;;;;31.25;5.82;;;;;;;;;;20832837;28;20427;-66
2023/04/09 17:52:19;;;;;;;28.13;4.72;;;;;;;;;;20830874;28;20132;-64
2023/04/09 18:02:21;;;;;;;27.17;4.93;;;;;;;;;;20830068;28;20050;-64
2023/04/09 18:12:23;;;;;;;31.23;5.55;;;;;;;;;;20830012;28;20053;-63
2023/04/09 18:22:27;;;;;;;35.58;6.43;;;;;;;;;;20829382;28;20049;-64
2023/04/09 18:32:29;;;;;;;34.50;5.82;;;;;;;;;;20830736;28;20050;-63
2023/04/09 18:42:30;;;;;;;31.73;6.03;;;;;;;;;;20829833;28;20045;-63
2023/04/09 18:52:36;;;;;;;24.33;4.53;;;;;;;;;;20837296;28;20483;-63
2023/04/09 19:02:38;;;;;;;28.17;4.55;;;;;;;;;;20843897;28;20058;-64
2023/04/09 19:12:48;;;;;;;25.85;5.00;;;;;;;;;;20842959;28;20139;-63
2023/04/09 19:22:52;;;;;;;30.10;5.72;;;;;;;;;;20843514;28;20058;-64
2023/04/09 19:32:53;;;;;;;26.23;5.85;;;;;;;;;;20842279;28;20399;-63
2023/04/09 19:42:55;;;;;;;26.00;7.25;;;;;;;;;;20840862;28;20049;-64
2023/04/09 19:52:56;;;;;;;20.70;5.53;;;;;;;;;;20840238;28;20045;-63
2023/04/09 20:02:58;;;;;;;30.17;5.93;;;;;;;;;;20837899;28;20121;-63
2023/04/09 20:13:00;;;;;;;29.98;5.45;;;;;;;;;;20837570;28;20049;-64
2023/04/09 20:23:02;;;;;;;30.58;5.82;;;;;;;;;;20835735;28;20049;-63
2023/04/09 20:33:03;;;;;;;23.05;5.10;;;;;;;;;;20836353;28;20049;-63
2023/04/09 20:43:05;;;;;;;28.38;7.05;;;;;;;;;;20833753;28;20057;-63
2023/04/09 20:53:07;;;;;;;26.90;6.65;;;;;;;;;;20825989;28;20045;-64
2023/04/09 21:03:08;;;;;;;33.65;7.13;;;;;;;;;;20830520;28;20041;-64
2023/04/09 21:13:10;;;;;;;29.45;7.82;;;;;;;;;;20832985;28;20507;-64
2023/04/09 21:23:12;;;;;;;34.72;6.45;;;;;;;;;;20833251;28;20057;-63
2023/04/09 21:33:14;;;;;;;40.28;7.63;;;;;;;;;;20834259;28;20052;-64
2023/04/09 21:43:15;;;;;;;31.27;6.25;;;;;;;;;;20833394;28;20055;-64
2023/04/09 21:53:17;;;;;;;36.47;6.95;;;;;;;;;;20833195;28;20049;-64
2023/04/09 22:03:19;;;;;;;39.17;6.97;;;;;;;;;;20832616;28;20056;-63
2023/04/09 22:13:21;;;;;;;37.00;7.03;;;;;;;;;;20830756;28;20053;-63
2023/04/09 22:23:22;;;;;;;33.13;6.53;;;;;;;;;;20835235;28;20057;-63
2023/04/09 22:33:27;;;;;;;31.77;7.00;;;;;;;;;;20857218;28;20054;-64
2023/04/09 22:43:28;;;;;;;40.40;6.30;;;;;;;;;;20856348;28;20050;-63
2023/04/09 22:53:30;;;;;;;36.28;6.78;;;;;;;;;;20857355;28;20454;-63
2023/04/09 23:03:32;;;;;;;32.17;6.07;;;;;;;;;;20856773;28;20049;-64
2023/04/09 23:13:33;;;;;;;38.67;7.80;;;;;;;;;;20857088;28;20208;-64
2023/04/09 23:23:35;;;;;;;25.67;6.75;;;;;;;;;;20857977;28;20111;-62
2023/04/09 23:33:37;;;;;;;28.50;6.68;;;;;;;;;;20853542;28;20124;-63
2023/04/09 23:43:39;;;;;;;32.33;7.85;;;;;;;;;;20841592;28;20041;-63
2023/04/09 23:53:41;;;;;;;33.78;7.53;;;;;;;;;;20842329;28;20045;-63
